Time;durP1;ratioP1;P1;durP2;ratioP2;P2;SDS_P1;SDS_P2;PMS_P1;PMS_P2;Temp;Humidity;BMP_temperature;BMP_pressure;BME280_temperature;BME280_humidity;BME280_pressure;Samples;Min_cycle;Max_cycle;Signal;HPM_P1;HPM_P2
2023/08/29 00:00:17;;;;;;;11.53;7.33;;;11.40;86.00;;;;;;5107437;27;46111;-66
2023/08/29 00:02:42;;;;;;;15.73;8.53;;;11.40;86.80;;;;;;5111088;27;46461;-68
2023/08/29 00:05:12;;;;;;;13.20;8.47;;;11.50;86.60;;;;;;5106792;27;47997;-66
2023/08/29 00:07:38;;;;;;;14.70;7.67;;;11.60;85.50;;;;;;5108535;27;46465;-66
2023/08/29 00:10:04;;;;;;;11.03;7.13;;;11.60;86.40;;;;;;5108748;27;46890;-68
2023/08/29 00:12:32;;;;;;;12.40;7.23;;;11.60;86.50;;;;;;5108267;27;46472;-67
2023/08/29 00:14:58;;;;;;;11.47;7.60;;;11.60;86.40;;;;;;5110366;27;47307;-67
2023/08/29 00:17:26;;;;;;;13.27;8.23;;;11.50;85.50;;;;;;5109348;27;46385;-65
2023/08/29 00:19:52;;;;;;;12.00;8.00;;;11.50;86.40;;;;;;5109683;27;46739;-66
2023/08/29 00:22:20;;;;;;;15.57;7.63;;;11.50;86.30;;;;;;5115449;27;46530;-66
2023/08/29 00:24:46;;;;;;;12.67;8.50;;;11.60;86.40;;;;;;5112751;27;48800;-67
2023/08/29 00:27:12;;;;;;;11.30;7.30;;;11.60;86.10;;;;;;5123821;27;46438;-67
2023/08/29 00:29:38;;;;;;;12.30;7.87;;;11.50;85.10;;;;;;5109454;27;46470;-67
2023/08/29 00:32:04;;;;;;;12.97;8.17;;;11.50;86.30;;;;;;5112071;27;46243;-67
2023/08/29 00:34:30;;;;;;;12.40;7.90;;;11.50;86.30;;;;;;5106445;27;48221;-69
2023/08/29 00:36:56;;;;;;;14.20;8.17;;;11.50;86.30;;;;;;5105953;27;46474;-68
2023/08/29 00:39:22;;;;;;;11.20;7.70;;;11.50;85.30;;;;;;5109034;27;46479;-68
2023/08/29 00:41:49;;;;;;;10.50;7.03;;;11.50;86.40;;;;;;5129132;27;46463;-67
2023/08/29 00:44:18;;;;;;;15.07;7.37;;;11.50;86.40;;;;;;5109475;27;48948;-66
2023/08/29 00:46:45;;;;;;;11.60;7.70;;;11.30;86.60;;;;;;5106306;27;46733;-66
2023/08/29 00:49:15;;;;;;;12.93;7.80;;;11.30;85.60;;;;;;5106795;27;46474;-66
2023/08/29 00:51:41;;;;;;;12.47;8.63;;;11.30;86.60;;;;;;5109033;27;46437;-66
2023/08/29 00:54:08;;;;;;;15.23;9.83;;;11.40;86.50;;;;;;5109508;27;46356;-66
2023/08/29 00:56:35;;;;;;;12.63;9.37;;;11.50;86.10;;;;;;5126464;27;46459;-68
2023/08/29 00:59:04;;;;;;;15.43;8.63;;;11.50;84.50;;;;;;5109907;27;46658;-66
2023/08/29 01:01:32;;;;;;;14.63;9.87;;;11.60;85.50;;;;;;5110249;27;46311;-68
2023/08/29 01:03:59;;;;;;;13.60;10.20;;;11.70;85.20;;;;;;5112925;27;48106;-68
2023/08/29 01:06:24;;;;;;;12.30;9.67;;;11.70;84.80;;;;;;5108333;27;46409;-66
2023/08/29 01:08:51;;;;;;;14.73;9.80;;;11.80;83.70;;;;;;5110509;27;46597;-67
2023/08/29 01:11:30;;;;;;;14.13;9.50;;;11.70;84.70;;;;;;5111059;27;46461;-67
2023/08/29 01:14:03;;;;;;;15.13;10.10;;;11.70;84.70;;;;;;5111928;27;48139;-68
2023/08/29 01:16:35;;;;;;;11.40;8.73;;;11.70;85.00;;;;;;5109586;27;46447;-68
2023/08/29 01:19:06;;;;;;;12.20;9.47;;;11.60;84.30;;;;;;5107329;27;46634;-66
2023/08/29 01:22:06;;;;;;;13.10;8.87;;;11.50;86.60;;;;;;5118671;27;46930;-68
2023/08/29 01:25:07;;;;;;;9.90;7.90;;;11.50;85.80;;;;;;5112575;27;48044;-66
2023/08/29 01:27:34;;;;;;;11.67;8.93;;;11.40;85.50;;;;;;5084466;27;46410;-66
2023/08/29 01:30:02;;;;;;;11.77;8.43;;;11.40;86.40;;;;;;5117878;27;46381;-68
2023/08/29 01:32:28;;;;;;;9.83;7.93;;;11.40;86.20;;;;;;5118498;27;46097;-68
2023/08/29 01:34:56;;;;;;;12.43;8.57;;;11.40;86.10;;;;;;5117374;27;47408;-66
2023/08/29 01:37:21;;;;;;;11.93;8.17;;;11.50;85.20;;;;;;5107960;27;46418;-67
2023/08/29 01:39:47;;;;;;;11.53;8.83;;;11.40;85.80;;;;;;5109790;27;46199;-68
2023/08/29 01:42:13;;;;;;;13.67;9.90;;;11.50;85.60;;;;;;5109503;27;47021;-67
2023/08/29 01:44:38;;;;;;;14.60;9.00;;;11.50;85.30;;;;;;5108676;27;47958;-68
2023/08/29 01:47:04;;;;;;;14.30;9.67;;;11.60;85.20;;;;;;5108783;27;46484;-68
2023/08/29 01:49:32;;;;;;;12.80;9.53;;;11.70;83.70;;;;;;5108346;27;46486;-68
2023/08/29 01:51:59;;;;;;;14.40;9.30;;;11.80;84.40;;;;;;5117125;27;46404;-68
2023/08/29 01:54:25;;;;;;;14.33;9.90;;;11.90;84.00;;;;;;5106972;27;46689;-67
2023/08/29 01:56:54;;;;;;;12.40;9.60;;;11.90;84.00;;;;;;5111496;27;46415;-66
2023/08/29 01:59:21;;;;;;;16.03;10.63;;;11.90;82.90;;;;;;5109080;27;46820;-66
2023/08/29 02:01:47;;;;;;;13.30;10.10;;;11.90;84.20;;;;;;5121913;27;46867;-68
2023/08/29 02:04:12;;;;;;;14.13;10.73;;;11.80;84.30;;;;;;5114134;27;47737;-68
2023/08/29 02:06:38;;;;;;;14.10;10.20;;;11.90;84.60;;;;;;5112436;27;45854;-68
2023/08/29 02:09:04;;;;;;;17.60;10.70;;;11.80;83.60;;;;;;5112186;27;46637;-66
2023/08/29 02:11:29;;;;;;;14.60;9.77;;;11.80;84.90;;;;;;5127092;27;46617;-67
2023/08/29 02:13:55;;;;;;;13.60;10.80;;;11.80;83.80;;;;;;5109399;27;46408;-66
2023/08/29 02:16:21;;;;;;;14.53;11.23;;;11.80;84.90;;;;;;5110801;27;45837;-67
2023/08/29 02:18:46;;;;;;;14.10;10.10;;;11.90;83.90;;;;;;5114204;27;46349;-67
2023/08/29 02:21:13;;;;;;;13.33;10.10;;;11.80;84.80;;;;;;5114196;27;46363;-68
2023/08/29 02:23:41;;;;;;;15.67;11.40;;;11.80;85.00;;;;;;5127095;27;48050;-67
2023/08/29 02:26:07;;;;;;;15.40;11.43;;;11.80;85.20;;;;;;5110766;27;46625;-65
2023/08/29 02:28:37;;;;;;;16.43;12.17;;;11.90;84.00;;;;;;5112232;27;46407;-66
2023/08/29 02:31:08;;;;;;;15.30;11.97;;;11.90;85.10;;;;;;5111668;27;45915;-68
2023/08/29 02:33:37;;;;;;;19.20;13.80;;;11.90;84.90;;;;;;5110072;27;46536;-69
2023/08/29 02:36:06;;;;;;;20.33;13.67;;;11.90;84.70;;;;;;5111010;27;46440;-66
2023/08/29 02:38:33;;;;;;;20.27;14.50;;;11.90;83.80;;;;;;5110274;27;46588;-69
2023/08/29 02:40:59;;;;;;;21.60;15.73;;;12.00;84.90;;;;;;5113364;27;46759;-68
2023/08/29 02:43:26;;;;;;;21.87;14.47;;;12.00;84.60;;;;;;5111440;27;46322;-68
2023/08/29 02:45:52;;;;;;;21.90;15.03;;;12.00;84.30;;;;;;5110948;27;46352;-68
2023/08/29 02:48:18;;;;;;;23.10;14.73;;;12.00;83.40;;;;;;5109514;27;46699;-66
2023/08/29 02:50:45;;;;;;;26.03;16.10;;;12.00;84.60;;;;;;5113225;27;46725;-66
2023/08/29 02:53:11;;;;;;;24.90;16.13;;;12.00;84.50;;;;;;5109468;27;48896;-68
2023/08/29 02:55:36;;;;;;;29.87;16.27;;;12.00;84.60;;;;;;5110727;27;46797;-67
2023/08/29 02:58:02;;;;;;;23.90;15.73;;;12.00;83.80;;;;;;5109649;27;46534;-67
2023/08/29 03:00:29;;;;;;;27.70;17.07;;;11.90;84.90;;;;;;5109740;27;46563;-67
2023/08/29 03:02:58;;;;;;;21.53;15.23;;;12.00;85.00;;;;;;5107960;27;49374;-67
2023/08/29 03:05:23;;;;;;;19.17;13.90;;;12.00;84.80;;;;;;5111329;27;46410;-67
2023/08/29 03:07:49;;;;;;;20.90;15.57;;;12.00;84.00;;;;;;5113741;27;45928;-68
2023/08/29 03:10:15;;;;;;;20.10;14.03;;;12.00;84.90;;;;;;5112269;27;46379;-67
2023/08/29 03:12:40;;;;;;;22.80;14.87;;;12.00;84.80;;;;;;5111528;27;46459;-67
2023/08/29 03:15:06;;;;;;;19.13;14.77;;;12.00;84.70;;;;;;5113317;27;46484;-67
2023/08/29 03:17:32;;;;;;;19.83;14.30;;;12.00;83.90;;;;;;5127854;27;46563;-67
2023/08/29 03:19:58;;;;;;;20.13;14.73;;;12.00;84.80;;;;;;5111821;27;46423;-67
2023/08/29 03:22:23;;;;;;;18.50;14.20;;;12.00;84.70;;;;;;5110369;27;48868;-66
2023/08/29 03:24:49;;;;;;;18.93;13.80;;;12.10;84.60;;;;;;5095229;27;46496;-66
2023/08/29 03:27:15;;;;;;;19.73;14.10;;;12.10;84.20;;;;;;5111753;27;46441;-66
2023/08/29 03:29:40;;;;;;;16.90;13.67;;;12.30;82.90;;;;;;5109757;27;46424;-68
2023/08/29 03:32:06;;;;;;;18.83;14.07;;;12.30;83.60;;;;;;5110161;27;48033;-66
2023/08/29 03:34:32;;;;;;;19.50;14.30;;;12.40;83.50;;;;;;5116211;27;46346;-67
2023/08/29 03:36:58;;;;;;;18.03;12.77;;;12.40;83.60;;;;;;5107674;27;46736;-66
2023/08/29 03:39:24;;;;;;;17.17;12.87;;;12.30;82.60;;;;;;5113992;27;46502;-66
2023/08/29 03:41:50;;;;;;;16.97;11.53;;;12.30;83.80;;;;;;5108793;27;47004;-67
2023/08/29 03:44:16;;;;;;;18.33;12.30;;;12.30;83.80;;;;;;5111334;27;46467;-67
2023/08/29 03:46:41;;;;;;;15.00;11.80;;;12.30;83.90;;;;;;5107524;27;46498;-66
2023/08/29 03:49:07;;;;;;;13.43;9.27;;;12.30;82.90;;;;;;5110024;27;46785;-66
2023/08/29 03:51:33;;;;;;;12.27;10.17;;;12.30;84.00;;;;;;5103129;27;46511;-68
2023/08/29 03:53:59;;;;;;;11.87;9.70;;;12.30;83.50;;;;;;5104298;27;45806;-66
2023/08/29 03:56:25;;;;;;;11.00;8.30;;;12.40;83.40;;;;;;5108975;27;46598;-65
2023/08/29 03:58:51;;;;;;;10.83;8.47;;;12.40;81.80;;;;;;5107641;27;46356;-66
2023/08/29 04:01:20;;;;;;;12.90;9.00;;;12.40;82.80;;;;;;5115116;27;46675;-65
2023/08/29 04:03:46;;;;;;;10.27;7.80;;;12.40;82.70;;;;;;5113624;27;46387;-67
2023/08/29 04:06:11;;;;;;;13.67;7.87;;;12.40;82.50;;;;;;5110361;27;46460;-66
2023/08/29 04:08:37;;;;;;;12.13;7.93;;;12.30;81.50;;;;;;5104388;27;46480;-67
2023/08/29 04:11:04;;;;;;;9.83;7.10;;;12.30;82.90;;;;;;5103334;27;47914;-65
2023/08/29 04:13:32;;;;;;;11.50;7.70;;;12.20;82.90;;;;;;5122717;27;46545;-67
2023/08/29 04:16:03;;;;;;;7.80;6.40;;;12.30;82.90;;;;;;5125525;27;46492;-66
2023/08/29 04:18:33;;;;;;;8.63;6.77;;;12.10;81.80;;;;;;5108428;27;46806;-67
2023/08/29 04:20:59;;;;;;;10.73;7.03;;;12.10;83.00;;;;;;5109556;27;48951;-68
2023/08/29 04:23:25;;;;;;;9.43;7.30;;;12.10;83.10;;;;;;5110109;27;46743;-67
2023/08/29 04:26:01;;;;;;;9.63;7.13;;;12.10;82.90;;;;;;5110008;27;46407;-68
2023/08/29 04:28:27;;;;;;;8.20;6.70;;;12.20;81.40;;;;;;5116535;27;46406;-66
2023/08/29 04:30:54;;;;;;;10.13;7.97;;;12.20;82.30;;;;;;5111243;27;48122;-67
2023/08/29 04:33:19;;;;;;;8.93;7.00;;;12.20;82.10;;;;;;5109881;27;46384;-66
2023/08/29 04:35:48;;;;;;;12.87;7.97;;;12.30;81.70;;;;;;5107645;27;45867;-67
2023/08/29 04:38:13;;;;;;;9.07;7.27;;;12.40;80.10;;;;;;5126736;27;46658;-66
2023/08/29 04:40:39;;;;;;;9.30;7.10;;;12.50;81.00;;;;;;5110425;27;46516;-66
2023/08/29 04:43:05;;;;;;;8.27;6.50;;;12.60;80.40;;;;;;5108521;27;46638;-67
2023/08/29 04:45:32;;;;;;;8.07;6.13;;;12.60;79.60;;;;;;5110108;27;46456;-66
2023/08/29 04:47:58;;;;;;;7.40;6.20;;;12.70;78.50;;;;;;5111703;27;46936;-67
2023/08/29 04:50:25;;;;;;;8.30;6.20;;;12.70;79.50;;;;;;5110817;27;48918;-66
2023/08/29 04:52:53;;;;;;;8.50;6.80;;;12.70;79.50;;;;;;5108973;27;46415;-66
2023/08/29 04:55:19;;;;;;;9.23;7.03;;;12.70;79.50;;;;;;5093383;27;46265;-66
2023/08/29 04:57:45;;;;;;;8.10;6.80;;;12.90;78.60;;;;;;5107308;27;45850;-66
2023/08/29 05:00:12;;;;;;;11.63;7.00;;;12.80;79.60;;;;;;5109995;27;47831;-66
2023/08/29 05:02:39;;;;;;;12.03;7.60;;;12.90;79.60;;;;;;5109033;27;46407;-67
2023/08/29 05:05:06;;;;;;;10.10;6.83;;;12.90;79.70;;;;;;5108652;27;46313;-66
2023/08/29 05:07:32;;;;;;;9.93;7.10;;;13.00;78.70;;;;;;5111744;27;46456;-66
2023/08/29 05:09:58;;;;;;;10.60;8.00;;;13.00;79.80;;;;;;5111063;27;48092;-67
2023/08/29 05:12:24;;;;;;;9.70;7.60;;;13.00;79.70;;;;;;5109402;27;46729;-67
2023/08/29 05:14:49;;;;;;;10.57;7.73;;;13.00;79.70;;;;;;5111776;27;46503;-66
2023/08/29 05:17:15;;;;;;;9.23;7.67;;;12.90;79.70;;;;;;5110991;27;46487;-66
2023/08/29 05:19:41;;;;;;;9.27;6.80;;;12.90;78.60;;;;;;5111418;27;48007;-67
2023/08/29 05:22:07;;;;;;;9.33;7.00;;;12.90;79.70;;;;;;5107526;27;46487;-67
2023/08/29 05:24:33;;;;;;;10.40;7.37;;;12.90;79.60;;;;;;5123774;27;45891;-67
2023/08/29 05:26:59;;;;;;;11.80;7.80;;;13.00;79.70;;;;;;5107616;27;46551;-66
2023/08/29 05:29:24;;;;;;;10.80;7.33;;;13.10;78.80;;;;;;5112350;27;47449;-66
2023/08/29 05:31:50;;;;;;;8.80;7.20;;;13.10;79.90;;;;;;5111677;27;46403;-67
2023/08/29 05:34:16;;;;;;;11.93;7.97;;;13.10;79.90;;;;;;5115587;27;45857;-66
2023/08/29 05:36:41;;;;;;;10.60;8.20;;;13.10;79.80;;;;;;5116935;27;46368;-66
2023/08/29 05:39:07;;;;;;;10.37;8.07;;;13.10;78.80;;;;;;5120907;27;48107;-67
2023/08/29 05:41:33;;;;;;;16.17;8.77;;;13.10;80.00;;;;;;5110155;27;46562;-66
2023/08/29 05:43:59;;;;;;;13.97;7.40;;;13.10;79.80;;;;;;5111165;27;46421;-66
2023/08/29 05:46:24;;;;;;;11.40;7.90;;;13.10;79.90;;;;;;5113472;27;45942;-66
2023/08/29 05:48:50;;;;;;;10.20;7.27;;;13.10;78.80;;;;;;5121441;27;48288;-67
2023/08/29 05:51:16;;;;;;;10.23;7.93;;;13.00;79.80;;;;;;5114981;27;46611;-67
2023/08/29 05:53:42;;;;;;;8.80;7.10;;;13.10;79.90;;;;;;5113720;27;46459;-68
2023/08/29 05:56:07;;;;;;;8.77;7.40;;;13.20;80.00;;;;;;5111972;27;46642;-66
2023/08/29 05:58:33;;;;;;;10.27;7.30;;;13.20;78.90;;;;;;5115108;27;48026;-67
2023/08/29 06:00:59;;;;;;;9.17;7.20;;;13.10;79.90;;;;;;5113232;27;46864;-67
2023/08/29 06:03:25;;;;;;;9.60;7.67;;;13.10;79.90;;;;;;5111729;27;46326;-67
2023/08/29 06:05:50;;;;;;;8.17;6.03;;;13.10;79.80;;;;;;5111048;27;46650;-67
2023/08/29 06:08:19;;;;;;;8.27;5.90;;;13.10;78.80;;;;;;5110488;27;47920;-68
2023/08/29 06:10:46;;;;;;;8.83;6.50;;;13.10;79.90;;;;;;5130709;27;46791;-68
2023/08/29 06:13:11;;;;;;;8.23;5.93;;;13.20;79.90;;;;;;5111998;27;46951;-67
2023/08/29 06:15:37;;;;;;;7.00;5.47;;;13.10;78.80;;;;;;5117416;22;46495;-68
2023/08/29 06:18:03;;;;;;;9.80;5.40;;;13.10;78.80;;;;;;5092091;27;46495;-69
2023/08/29 06:20:29;;;;;;;7.53;6.23;;;13.10;79.90;;;;;;5127287;27;46561;-68
2023/08/29 06:22:56;;;;;;;7.43;5.40;;;13.20;79.90;;;;;;5129392;27;46453;-68
2023/08/29 06:25:24;;;;;;;6.90;5.43;;;13.30;80.00;;;;;;5129262;27;46641;-68
2023/08/29 06:27:49;;;;;;;6.70;5.33;;;13.40;79.10;;;;;;5128187;27;47879;-68
2023/08/29 06:30:15;;;;;;;7.00;5.60;;;13.40;80.10;;;;;;5128647;27;46683;-67
2023/08/29 06:32:41;;;;;;;5.47;4.43;;;13.40;80.20;;;;;;5129006;27;46495;-68
2023/08/29 06:35:09;;;;;;;8.30;5.27;;;13.40;80.50;;;;;;5125771;27;46693;-69
2023/08/29 06:37:36;;;;;;;5.90;4.50;;;13.40;79.10;;;;;;5127411;27;46515;-68
2023/08/29 06:40:04;;;;;;;5.77;4.90;;;13.40;80.20;;;;;;5128835;27;46428;-68
2023/08/29 06:42:31;;;;;;;6.17;4.67;;;13.40;80.10;;;;;;5126511;27;46809;-68
2023/08/29 06:44:58;;;;;;;6.77;5.20;;;13.40;80.20;;;;;;5127651;27;46463;-68
2023/08/29 06:47:24;;;;;;;6.30;4.17;;;13.40;79.10;;;;;;5127285;27;46451;-68
2023/08/29 06:49:50;;;;;;;4.97;4.37;;;13.40;80.20;;;;;;5128076;27;46695;-68
2023/08/29 06:52:15;;;;;;;5.37;4.57;;;13.40;80.10;;;;;;5128915;27;46512;-68
2023/08/29 06:54:41;;;;;;;5.23;4.47;;;13.40;80.20;;;;;;5109135;27;46975;-68
2023/08/29 06:57:07;;;;;;;7.30;4.73;;;13.50;79.20;;;;;;5126517;27;47345;-68
2023/08/29 06:59:32;;;;;;;5.83;4.00;;;13.50;79.90;;;;;;5128355;27;46634;-68
2023/08/29 07:01:58;;;;;;;5.50;4.07;;;13.50;79.50;;;;;;5126550;27;46484;-68
2023/08/29 07:04:23;;;;;;;6.60;4.17;;;13.50;79.70;;;;;;5128620;27;46447;-68
2023/08/29 07:06:49;;;;;;;4.87;4.20;;;;;;;;;;5124775;27;47118;-68
2023/08/29 07:09:16;;;;;;;6.40;4.20;;;13.50;78.40;;;;;;5122888;27;46771;-68
2023/08/29 07:11:41;;;;;;;5.70;4.40;;;13.40;79.70;;;;;;5129532;27;46507;-67
2023/08/29 07:14:07;;;;;;;5.73;4.23;;;13.40;80.10;;;;;;5129169;27;46850;-67
2023/08/29 07:16:32;;;;;;;4.90;3.80;;;13.50;80.10;;;;;;5125819;27;46590;-68
2023/08/29 07:18:58;;;;;;;5.50;3.37;;;13.40;79.10;;;;;;5125003;27;46473;-68
2023/08/29 07:21:24;;;;;;;4.70;3.47;;;13.40;80.10;;;;;;5127281;27;46383;-68
2023/08/29 07:23:49;;;;;;;9.33;4.80;;;13.50;79.90;;;;;;5126184;27;46187;-67
2023/08/29 07:26:15;;;;;;;4.80;3.60;;;13.60;79.60;;;;;;5126814;27;46503;-68
2023/08/29 07:28:41;;;;;;;5.10;3.90;;;13.60;78.10;;;;;;5127154;27;46827;-68
2023/08/29 07:31:06;;;;;;;4.47;3.30;;;13.60;80.00;;;;;;5124689;27;46516;-68
2023/08/29 07:33:32;;;;;;;4.70;3.30;;;13.50;79.40;;;;;;5130254;27;46006;-68
2023/08/29 07:35:57;;;;;;;4.80;3.43;;;13.50;79.40;;;;;;5127918;27;46399;-68
2023/08/29 07:38:23;;;;;;;4.20;3.70;;;13.50;78.50;;;;;;5106647;27;46961;-68
2023/08/29 07:40:49;;;;;;;5.20;3.17;;;;;;;;;;5126674;27;46785;-67
2023/08/29 07:43:15;;;;;;;4.00;2.77;;;13.60;77.80;;;;;;5125130;27;46991;-67
2023/08/29 07:45:42;;;;;;;3.23;2.63;;;13.60;78.60;;;;;;5129299;27;46504;-68
2023/08/29 07:48:08;;;;;;;3.60;2.33;;;13.50;77.90;;;;;;5128352;27;46402;-69
2023/08/29 07:50:33;;;;;;;3.37;2.60;;;13.50;79.10;;;;;;5127067;27;46439;-68
2023/08/29 07:52:59;;;;;;;3.00;2.27;;;13.60;78.80;;;;;;5127486;27;46745;-68
2023/08/29 07:55:25;;;;;;;3.13;2.53;;;13.80;78.50;;;;;;5126050;27;47397;-68
2023/08/29 07:57:50;;;;;;;2.90;2.40;;;13.90;77.00;;;;;;5127332;27;46374;-68
2023/08/29 08:00:17;;;;;;;2.30;1.70;;;13.90;78.00;;;;;;5127946;27;46836;-68
2023/08/29 08:02:43;;;;;;;2.40;1.70;;;14.00;77.90;;;;;;5117617;27;46571;-69
2023/08/29 08:05:16;;;;;;;2.80;1.90;;;14.00;77.70;;;;;;5128696;27;47292;-68
2023/08/29 08:07:43;;;;;;;3.10;1.90;;;14.10;76.60;;;;;;5126542;27;46659;-68
2023/08/29 08:10:10;;;;;;;2.97;1.77;;;14.10;77.60;;;;;;5124086;27;46797;-68
2023/08/29 08:12:37;;;;;;;2.30;1.60;;;14.00;77.60;;;;;;5127578;27;46720;-67
2023/08/29 08:15:04;;;;;;;2.70;1.87;;;14.10;77.70;;;;;;5129346;27;46350;-69
2023/08/29 08:17:31;;;;;;;3.63;1.90;;;14.20;76.60;;;;;;5121993;27;46492;-67
2023/08/29 08:19:56;;;;;;;3.00;1.63;;;14.20;77.60;;;;;;5125615;27;46420;-68
2023/08/29 08:22:23;;;;;;;2.50;1.80;;;14.20;77.60;;;;;;5123570;27;46421;-68
2023/08/29 08:24:51;;;;;;;2.40;1.60;;;14.20;77.60;;;;;;5128130;27;47061;-68
2023/08/29 08:27:18;;;;;;;2.43;1.53;;;14.40;76.10;;;;;;5124884;27;46537;-67
2023/08/29 08:29:45;;;;;;;2.50;1.70;;;14.40;77.20;;;;;;5109059;27;46517;-68
2023/08/29 08:32:10;;;;;;;2.23;1.53;;;14.50;77.00;;;;;;5124032;27;46370;-68
2023/08/29 08:34:36;;;;;;;2.23;1.40;;;14.50;76.90;;;;;;5126535;27;47062;-68
2023/08/29 08:37:02;;;;;;;2.20;1.40;;;14.50;75.80;;;;;;5125067;27;46705;-68
2023/08/29 08:39:30;;;;;;;2.50;1.60;;;14.50;76.80;;;;;;5106201;27;46391;-68
2023/08/29 08:41:56;;;;;;;2.50;1.40;;;14.50;76.50;;;;;;5124576;27;46730;-68
2023/08/29 08:44:24;;;;;;;3.03;1.70;;;14.70;76.40;;;;;;5125394;27;46529;-68
2023/08/29 08:46:50;;;;;;;2.03;1.33;;;;;;;;;;5116012;27;46434;-68
2023/08/29 08:49:17;;;;;;;2.83;1.70;;;14.70;75.20;;;;;;5125712;27;46445;-67
2023/08/29 08:51:43;;;;;;;2.20;1.37;;;14.70;76.30;;;;;;5127528;27;46698;-68
2023/08/29 08:54:10;;;;;;;2.53;1.70;;;14.60;76.20;;;;;;5126283;27;46844;-66
2023/08/29 08:56:38;;;;;;;2.97;1.73;;;14.70;76.40;;;;;;5126508;27;46440;-68
2023/08/29 08:59:04;;;;;;;2.63;1.70;;;14.50;75.50;;;;;;5123657;27;46489;-68
2023/08/29 09:01:30;;;;;;;2.63;1.80;;;14.50;76.50;;;;;;5107186;27;46744;-68
2023/08/29 09:03:56;;;;;;;4.13;2.00;;;14.50;76.40;;;;;;5123750;27;46439;-67
2023/08/29 09:06:22;;;;;;;2.83;1.80;;;14.50;76.60;;;;;;5126249;27;46495;-68
2023/08/29 09:08:48;;;;;;;3.40;1.80;;;14.40;75.20;;;;;;5125193;27;46502;-68
2023/08/29 09:11:18;;;;;;;4.07;1.67;;;14.20;77.00;;;;;;5123168;27;46770;-68
2023/08/29 09:13:48;;;;;;;2.43;1.53;;;14.30;77.00;;;;;;5126141;27;46838;-69
2023/08/29 09:16:14;;;;;;;2.60;1.60;;;14.20;76.50;;;;;;5126987;27;46635;-67
2023/08/29 09:18:43;;;;;;;2.40;1.50;;;14.10;76.00;;;;;;5126068;27;46514;-68
2023/08/29 09:21:19;;;;;;;2.80;1.90;;;14.10;76.90;;;;;;5125340;27;46360;-68
2023/08/29 09:23:44;;;;;;;3.50;1.70;;;14.00;77.10;;;;;;5124770;27;46477;-68
2023/08/29 09:26:12;;;;;;;2.27;1.47;;;14.00;77.10;;;;;;5125289;27;46427;-68
2023/08/29 09:28:38;;;;;;;2.70;1.57;;;14.10;75.30;;;;;;5104933;27;45900;-68
2023/08/29 09:31:05;;;;;;;3.57;1.90;;;14.00;76.80;;;;;;5127335;27;46747;-68
2023/08/29 09:33:32;;;;;;;2.67;1.97;;;14.00;77.10;;;;;;5125880;27;46506;-68
2023/08/29 09:36:00;;;;;;;2.30;1.60;;;14.10;76.70;;;;;;5125980;27;46445;-69
2023/08/29 09:38:29;;;;;;;3.07;1.70;;;14.20;75.10;;;;;;5125739;27;46615;-68
2023/08/29 09:40:55;;;;;;;1.90;1.20;;;14.20;76.00;;;;;;5127003;27;46495;-68
2023/08/29 09:43:21;;;;;;;2.33;1.30;;;14.10;75.80;;;;;;5116794;27;46080;-67
2023/08/29 09:45:51;;;;;;;3.50;1.43;;;14.10;75.90;;;;;;5121785;27;46823;-70
2023/08/29 09:48:18;;;;;;;2.27;1.40;;;14.20;74.40;;;;;;5108318;27;46485;-69
2023/08/29 09:50:45;;;;;;;2.60;1.53;;;14.40;75.50;;;;;;5123086;27;46786;-69
2023/08/29 09:53:16;;;;;;;3.10;1.80;;;14.30;74.90;;;;;;5125183;27;46853;-68
2023/08/29 09:55:55;;;;;;;3.90;1.60;;;14.40;74.90;;;;;;5125926;27;46370;-69
2023/08/29 09:58:24;;;;;;;2.30;1.43;;;14.50;73.80;;;;;;5123795;27;46511;-69
2023/08/29 10:00:51;;;;;;;1.90;1.27;;;14.50;74.90;;;;;;5124306;27;46663;-68
2023/08/29 10:03:18;;;;;;;2.20;1.47;;;14.50;74.80;;;;;;5123043;27;46439;-70
2023/08/29 10:05:44;;;;;;;2.20;1.50;;;14.30;75.20;;;;;;5124009;27;46686;-70
2023/08/29 10:08:37;;;;;;;2.60;1.40;;;14.30;74.20;;;;;;5123981;27;46762;-68
2023/08/29 10:11:05;;;;;;;2.50;1.50;;;14.30;75.20;;;;;;5123760;27;46450;-68
2023/08/29 10:13:34;;;;;;;2.10;1.40;;;14.50;74.90;;;;;;5123882;27;46769;-68
2023/08/29 10:16:01;;;;;;;2.10;1.30;;;14.50;74.70;;;;;;5121219;27;46405;-68
2023/08/29 10:18:28;;;;;;;2.00;1.23;;;14.70;73.20;;;;;;5110978;27;46836;-69
2023/08/29 10:20:55;;;;;;;2.30;1.53;;;14.80;74.30;;;;;;5128606;27;46828;-69
2023/08/29 10:23:22;;;;;;;1.90;1.13;;;14.90;74.20;;;;;;5125752;27;46531;-70
2023/08/29 10:25:49;;;;;;;2.00;1.20;;;15.00;73.80;;;;;;5124550;27;46462;-69
2023/08/29 10:28:15;;;;;;;2.10;1.30;;;15.20;71.90;;;;;;5127508;27;46421;-70
2023/08/29 10:30:45;;;;;;;2.17;1.37;;;15.30;72.90;;;;;;5123717;27;46640;-70
2023/08/29 10:33:12;;;;;;;2.17;1.30;;;15.40;72.70;;;;;;5126856;27;46328;-70
2023/08/29 10:35:38;;;;;;;2.63;1.33;;;15.50;72.60;;;;;;5125946;27;46604;-69
2023/08/29 10:38:10;;;;;;;2.10;1.27;;;15.40;72.00;;;;;;5108219;27;46486;-69
2023/08/29 10:40:36;;;;;;;1.80;1.07;;;15.40;72.90;;;;;;5126088;27;46521;-68
2023/08/29 10:43:03;;;;;;;2.13;1.27;;;15.50;72.40;;;;;;5125283;27;46526;-68
2023/08/29 10:45:57;;;;;;;2.43;1.23;;;15.50;72.40;;;;;;5123388;27;46275;-69
2023/08/29 10:48:29;;;;;;;2.40;1.27;;;15.70;70.70;;;;;;5128194;27;46751;-71
2023/08/29 10:51:07;;;;;;;3.40;1.40;;;15.60;72.00;;;;;;5128381;27;46833;-71
2023/08/29 10:53:47;;;;;;;3.33;1.30;;;15.90;71.70;;;;;;5128316;27;46499;-69
2023/08/29 10:56:13;;;;;;;2.30;1.10;;;15.90;70.40;;;;;;5134904;27;46381;-69
2023/08/29 10:58:41;;;;;;;2.10;1.10;;;15.80;69.60;;;;;;5135312;27;46429;-70
2023/08/29 11:01:33;;;;;;;2.10;1.20;;;15.80;70.20;;;;;;5134520;27;46413;-70
2023/08/29 11:04:11;;;;;;;3.10;1.40;;;16.00;70.00;;;;;;5125933;27;46559;-69
2023/08/29 11:06:51;;;;;;;2.33;1.20;;;16.30;70.20;;;;;;5130212;27;46713;-70
2023/08/29 11:09:24;;;;;;;2.23;1.30;;;16.60;68.50;;;;;;5125478;27;46375;-70
2023/08/29 11:12:09;;;;;;;2.00;1.20;;;16.60;68.30;;;;;;5125633;27;46489;-70
2023/08/29 11:14:51;;;;;;;1.87;1.10;;;16.50;68.30;;;;;;5113384;27;47870;-71
2023/08/29 11:17:23;;;;;;;1.80;1.00;;;16.50;67.40;;;;;;5126026;27;46668;-71
2023/08/29 11:19:53;;;;;;;2.67;1.10;;;16.40;68.10;;;;;;5125442;27;46664;-70
2023/08/29 11:22:25;;;;;;;2.40;1.10;;;16.00;69.20;;;;;;5127170;27;46452;-70
2023/08/29 11:24:55;;;;;;;1.90;0.90;;;16.20;68.20;;;;;;5126797;27;47275;-70
2023/08/29 11:27:25;;;;;;;2.30;0.90;;;16.40;66.80;;;;;;5127856;27;46452;-69
2023/08/29 11:29:55;;;;;;;1.70;0.80;;;16.50;67.80;;;;;;5124612;27;46554;-70
2023/08/29 11:32:21;;;;;;;1.80;0.90;;;16.60;67.00;;;;;;5108822;27;46403;-69
2023/08/29 11:34:52;;;;;;;1.60;0.80;;;16.70;67.10;;;;;;5126350;27;47659;-69
2023/08/29 11:37:17;;;;;;;1.60;0.70;;;17.00;66.00;;;;;;5127845;27;46381;-68
2023/08/29 11:39:58;;;;;;;2.07;1.00;;;17.00;66.90;;;;;;5123967;27;46426;-72
2023/08/29 11:42:28;;;;;;;1.60;0.70;;;17.00;66.70;;;;;;5126445;27;46828;-69
2023/08/29 11:44:54;;;;;;;1.80;0.70;;;16.90;66.40;;;;;;5127217;27;46757;-68
2023/08/29 11:47:20;;;;;;;3.20;0.90;;;16.90;65.90;;;;;;5127330;27;46696;-69
2023/08/29 11:49:50;;;;;;;2.00;0.90;;;16.90;67.00;;;;;;5127016;27;46424;-69
2023/08/29 11:52:17;;;;;;;2.00;0.80;;;16.70;67.20;;;;;;5128376;27;46523;-70
2023/08/29 11:54:52;;;;;;;1.77;0.90;;;16.80;67.20;;;;;;5124467;27;46693;-69
2023/08/29 11:57:18;;;;;;;2.10;0.93;;;16.90;65.20;;;;;;5130445;27;46809;-68
2023/08/29 11:59:50;;;;;;;1.80;0.83;;;16.90;66.30;;;;;;5126897;27;46515;-68
2023/08/29 12:02:23;;;;;;;1.80;0.90;;;16.70;65.80;;;;;;5122908;27;46469;-69
2023/08/29 12:04:55;;;;;;;2.23;0.90;;;16.60;66.00;;;;;;5125519;27;46438;-68
2023/08/29 12:07:20;;;;;;;5.40;1.50;;;16.30;65.50;;;;;;5125107;27;46680;-68
2023/08/29 12:09:47;;;;;;;2.60;1.07;;;16.30;66.60;;;;;;5124602;27;46618;-69
2023/08/29 12:12:33;;;;;;;3.50;0.70;;;16.10;67.00;;;;;;5125155;27;46744;-69
2023/08/29 12:14:59;;;;;;;1.80;0.77;;;15.90;67.30;;;;;;5125715;27;47942;-69
2023/08/29 12:17:42;;;;;;;1.70;0.80;;;15.90;66.40;;;;;;5124401;27;46539;-67
2023/08/29 12:20:14;;;;;;;1.60;0.70;;;15.80;67.60;;;;;;5128836;27;46388;-68
2023/08/29 12:22:47;;;;;;;1.70;0.80;;;15.40;68.30;;;;;;5122926;27;46679;-69
2023/08/29 12:25:13;;;;;;;2.30;0.90;;;15.40;68.70;;;;;;5128089;27;47333;-69
2023/08/29 12:27:39;;;;;;;1.80;0.90;;;15.80;67.10;;;;;;5124180;27;46417;-68
2023/08/29 12:30:06;;;;;;;1.80;0.90;;;15.80;67.80;;;;;;5109711;27;46637;-68
2023/08/29 12:32:32;;;;;;;1.87;0.90;;;15.80;67.50;;;;;;5126093;27;46624;-68
2023/08/29 12:34:58;;;;;;;2.77;1.20;;;15.90;67.40;;;;;;5127242;27;47158;-68
2023/08/29 12:37:25;;;;;;;2.00;1.20;;;16.00;66.20;;;;;;5121845;27;46486;-70
2023/08/29 12:39:51;;;;;;;2.00;1.07;;;16.00;67.30;;;;;;5127962;27;46391;-69
2023/08/29 12:42:17;;;;;;;2.60;1.10;;;16.00;67.60;;;;;;5128359;27;46573;-69
2023/08/29 12:44:43;;;;;;;6.23;2.50;;;15.80;67.40;;;;;;5122480;27;47101;-69